New Middletown, Indiana
Current Conditions -  °F | °C
As of 5:56 AM on Friday 28 Nov 2014 (Local Time) from KSDF Reporting Station
Overcast Overcast  
Wind Chill: 27°   Ceiling: 10000
Heat Index: 27°   Visibility: 10mi
Dew Point: 18°   Wind: 0mph
Humidity: 69%   Direction: NA
Pressure: 30.42"   Gusts: NA
Location:  38.16°N, 86.05°W
Report Text: KSDF 281056Z 00000KT 10SM FEW080 BKN100 OVC150 M03/M08 A3042 RMK AO2 SLP307 T10281078
Loading
Personal Weather Stations






























Interactive Weather Map New forecast layout! Learn more

10-Day Weather Forecast

Advertisements
Track Severe Weather on mobile